sensor_id;sensor_type;location;lat;lon;timestamp;P1;durP1;ratioP1;P2;durP2;ratioP2
63370;SDS011;49504;48.336;14.472;2022-08-19T03:09:11;4.40;;;1.30;;
63370;SDS011;49504;48.336;14.472;2022-08-19T03:14:13;2.75;;;1.10;;
63370;SDS011;49504;48.336;14.472;2022-08-19T03:19:15;4.38;;;1.40;;
63370;SDS011;49504;48.336;14.472;2022-08-19T03:24:19;3.65;;;1.13;;
63370;SDS011;49504;48.336;14.472;2022-08-19T03:29:20;5.07;;;1.70;;
63370;SDS011;49504;48.336;14.472;2022-08-19T03:34:21;4.45;;;1.20;;
63370;SDS011;49504;48.336;14.472;2022-08-19T03:39:26;2.85;;;1.25;;
63370;SDS011;49504;48.336;14.472;2022-08-19T03:44:27;3.30;;;0.93;;
63370;SDS011;49504;48.336;14.472;2022-08-19T03:49:30;4.25;;;1.10;;
63370;SDS011;49504;48.336;14.472;2022-08-19T03:54:34;3.75;;;1.20;;
63370;SDS011;49504;48.336;14.472;2022-08-19T03:59:36;2.72;;;0.95;;
63370;SDS011;49504;48.336;14.472;2022-08-19T04:04:38;3.20;;;1.13;;
63370;SDS011;49504;48.336;14.472;2022-08-19T04:09:43;4.28;;;1.30;;
63370;SDS011;49504;48.336;14.472;2022-08-19T04:14:44;3.47;;;1.38;;
63370;SDS011;49504;48.336;14.472;2022-08-19T04:19:45;4.10;;;1.55;;
63370;SDS011;49504;48.336;14.472;2022-08-19T04:24:48;2.80;;;1.00;;
63370;SDS011;49504;48.336;14.472;2022-08-19T04:29:49;3.03;;;1.15;;
63370;SDS011;49504;48.336;14.472;2022-08-19T04:34:50;4.65;;;1.70;;
63370;SDS011;49504;48.336;14.472;2022-08-19T04:39:52;4.55;;;1.60;;
63370;SDS011;49504;48.336;14.472;2022-08-19T04:44:53;4.35;;;1.40;;
63370;SDS011;49504;48.336;14.472;2022-08-19T04:49:54;4.38;;;1.60;;
63370;SDS011;49504;48.336;14.472;2022-08-19T04:55:54;3.35;;;1.45;;
63370;SDS011;49504;48.336;14.472;2022-08-19T05:00:56;2.58;;;1.00;;
63370;SDS011;49504;48.336;14.472;2022-08-19T05:05:58;3.67;;;1.75;;
63370;SDS011;49504;48.336;14.472;2022-08-19T05:11:08;3.63;;;1.65;;
63370;SDS011;49504;48.336;14.472;2022-08-19T05:16:16;4.63;;;1.80;;
63370;SDS011;49504;48.336;14.472;2022-08-19T05:21:20;4.80;;;1.48;;
63370;SDS011;49504;48.336;14.472;2022-08-19T05:26:23;3.42;;;1.50;;
63370;SDS011;49504;48.336;14.472;2022-08-19T05:31:25;4.60;;;1.60;;
63370;SDS011;49504;48.336;14.472;2022-08-19T05:39:37;3.65;;;1.10;;
63370;SDS011;49504;48.336;14.472;2022-08-19T05:48:09;4.82;;;1.50;;
63370;SDS011;49504;48.336;14.472;2022-08-19T05:53:12;5.45;;;1.40;;
63370;SDS011;49504;48.336;14.472;2022-08-19T05:58:13;5.00;;;1.80;;
63370;SDS011;49504;48.336;14.472;2022-08-19T06:03:15;5.78;;;3.00;;
63370;SDS011;49504;48.336;14.472;2022-08-19T06:08:18;5.80;;;2.70;;
63370;SDS011;49504;48.336;14.472;2022-08-19T06:13:23;4.45;;;2.55;;
63370;SDS011;49504;48.336;14.472;2022-08-19T06:18:28;4.57;;;2.13;;
63370;SDS011;49504;48.336;14.472;2022-08-19T06:23:30;5.90;;;2.35;;
63370;SDS011;49504;48.336;14.472;2022-08-19T06:28:34;4.80;;;2.40;;
63370;SDS011;49504;48.336;14.472;2022-08-19T06:33:39;4.70;;;2.20;;
63370;SDS011;49504;48.336;14.472;2022-08-19T06:42:29;5.80;;;2.70;;
63370;SDS011;49504;48.336;14.472;2022-08-19T06:47:30;4.88;;;3.10;;
63370;SDS011;49504;48.336;14.472;2022-08-19T06:52:32;6.43;;;3.70;;
63370;SDS011;49504;48.336;14.472;2022-08-19T07:00:37;6.72;;;4.53;;
63370;SDS011;49504;48.336;14.472;2022-08-19T07:05:39;7.57;;;4.88;;
63370;SDS011;49504;48.336;14.472;2022-08-19T07:10:44;9.57;;;5.57;;
63370;SDS011;49504;48.336;14.472;2022-08-19T07:18:11;7.53;;;5.88;;
63370;SDS011;49504;48.336;14.472;2022-08-19T07:25:57;10.38;;;5.80;;
63370;SDS011;49504;48.336;14.472;2022-08-19T07:32:32;9.55;;;5.45;;
63370;SDS011;49504;48.336;14.472;2022-08-19T07:37:33;8.15;;;6.00;;
63370;SDS011;49504;48.336;14.472;2022-08-19T07:42:34;9.13;;;6.07;;
63370;SDS011;49504;48.336;14.472;2022-08-19T07:47:36;8.25;;;5.90;;
63370;SDS011;49504;48.336;14.472;2022-08-19T07:52:37;9.48;;;6.30;;
63370;SDS011;49504;48.336;14.472;2022-08-19T07:57:38;7.78;;;5.82;;
63370;SDS011;49504;48.336;14.472;2022-08-19T08:02:41;8.90;;;7.03;;
63370;SDS011;49504;48.336;14.472;2022-08-19T08:07:51;12.52;;;7.65;;
63370;SDS011;49504;48.336;14.472;2022-08-19T08:12:52;9.52;;;7.60;;
63370;SDS011;49504;48.336;14.472;2022-08-19T08:17:54;9.80;;;7.32;;
63370;SDS011;49504;48.336;14.472;2022-08-19T08:22:56;11.82;;;7.45;;
63370;SDS011;49504;48.336;14.472;2022-08-19T08:27:57;9.73;;;6.85;;
63370;SDS011;49504;48.336;14.472;2022-08-19T08:32:58;12.32;;;7.32;;
63370;SDS011;49504;48.336;14.472;2022-08-19T08:38:02;7.97;;;5.57;;
63370;SDS011;49504;48.336;14.472;2022-08-19T08:43:06;8.85;;;5.70;;
63370;SDS011;49504;48.336;14.472;2022-08-19T08:52:04;10.85;;;7.25;;
63370;SDS011;49504;48.336;14.472;2022-08-19T08:59:54;17.17;;;12.00;;
63370;SDS011;49504;48.336;14.472;2022-08-19T09:05:00;17.70;;;11.75;;
63370;SDS011;49504;48.336;14.472;2022-08-19T09:10:04;20.35;;;15.55;;
63370;SDS011;49504;48.336;14.472;2022-08-19T09:15:18;19.77;;;16.45;;
63370;SDS011;49504;48.336;14.472;2022-08-19T09:20:29;16.67;;;14.52;;
63370;SDS011;49504;48.336;14.472;2022-08-19T09:25:30;18.52;;;15.75;;
63370;SDS011;49504;48.336;14.472;2022-08-19T09:30:34;19.60;;;14.95;;
63370;SDS011;49504;48.336;14.472;2022-08-19T09:35:41;15.13;;;12.63;;
63370;SDS011;49504;48.336;14.472;2022-08-19T09:46:41;14.07;;;11.40;;
63370;SDS011;49504;48.336;14.472;2022-08-19T09:51:44;14.35;;;10.90;;
63370;SDS011;49504;48.336;14.472;2022-08-19T09:56:50;13.20;;;10.30;;
63370;SDS011;49504;48.336;14.472;2022-08-19T10:01:53;12.10;;;10.15;;
63370;SDS011;49504;48.336;14.472;2022-08-19T10:06:55;12.85;;;9.68;;
63370;SDS011;49504;48.336;14.472;2022-08-19T10:11:56;10.60;;;9.10;;
63370;SDS011;49504;48.336;14.472;2022-08-19T10:16:58;11.00;;;8.65;;
63370;SDS011;49504;48.336;14.472;2022-08-19T10:22:02;10.75;;;8.73;;
63370;SDS011;49504;48.336;14.472;2022-08-19T10:27:04;11.55;;;9.35;;
63370;SDS011;49504;48.336;14.472;2022-08-19T10:32:07;10.07;;;9.02;;
63370;SDS011;49504;48.336;14.472;2022-08-19T10:37:08;10.63;;;8.68;;
63370;SDS011;49504;48.336;14.472;2022-08-19T10:42:09;10.90;;;8.90;;
63370;SDS011;49504;48.336;14.472;2022-08-19T10:47:12;10.20;;;7.95;;
63370;SDS011;49504;48.336;14.472;2022-08-19T10:52:13;9.90;;;8.05;;
63370;SDS011;49504;48.336;14.472;2022-08-19T10:57:14;8.85;;;7.45;;
63370;SDS011;49504;48.336;14.472;2022-08-19T11:04:56;8.88;;;7.65;;
63370;SDS011;49504;48.336;14.472;2022-08-19T11:09:57;9.30;;;7.00;;
63370;SDS011;49504;48.336;14.472;2022-08-19T11:18:19;9.23;;;6.80;;
63370;SDS011;49504;48.336;14.472;2022-08-19T11:23:20;8.00;;;6.45;;
63370;SDS011;49504;48.336;14.472;2022-08-19T11:28:21;8.68;;;6.97;;
63370;SDS011;49504;48.336;14.472;2022-08-19T11:33:24;7.78;;;6.43;;
63370;SDS011;49504;48.336;14.472;2022-08-19T11:38:25;7.63;;;5.82;;
63370;SDS011;49504;48.336;14.472;2022-08-19T11:43:27;9.10;;;6.72;;
63370;SDS011;49504;48.336;14.472;2022-08-19T11:48:30;8.38;;;5.75;;
63370;SDS011;49504;48.336;14.472;2022-08-19T11:53:31;8.30;;;6.35;;
63370;SDS011;49504;48.336;14.472;2022-08-19T11:58:33;7.53;;;6.25;;
63370;SDS011;49504;48.336;14.472;2022-08-19T12:03:37;13.48;;;5.70;;
63370;SDS011;49504;48.336;14.472;2022-08-19T12:08:38;6.72;;;5.43;;
63370;SDS011;49504;48.336;14.472;2022-08-19T12:17:52;7.85;;;5.97;;
63370;SDS011;49504;48.336;14.472;2022-08-19T12:22:53;6.95;;;5.68;;
63370;SDS011;49504;48.336;14.472;2022-08-19T12:27:55;6.63;;;5.40;;
63370;SDS011;49504;48.336;14.472;2022-08-19T12:32:58;6.63;;;5.43;;
63370;SDS011;49504;48.336;14.472;2022-08-19T12:37:59;6.93;;;5.63;;
63370;SDS011;49504;48.336;14.472;2022-08-19T12:44:42;7.90;;;6.53;;
63370;SDS011;49504;48.336;14.472;2022-08-19T12:49:44;8.23;;;6.18;;
63370;SDS011;49504;48.336;14.472;2022-08-19T12:54:45;8.88;;;6.93;;
63370;SDS011;49504;48.336;14.472;2022-08-19T12:59:51;8.73;;;6.72;;
63370;SDS011;49504;48.336;14.472;2022-08-19T13:04:53;7.68;;;6.18;;
63370;SDS011;49504;48.336;14.472;2022-08-19T13:09:54;8.13;;;6.30;;
63370;SDS011;49504;48.336;14.472;2022-08-19T13:14:57;7.00;;;6.00;;
63370;SDS011;49504;48.336;14.472;2022-08-19T13:20:21;8.23;;;5.90;;
63370;SDS011;49504;48.336;14.472;2022-08-19T13:25:23;7.15;;;5.75;;
63370;SDS011;49504;48.336;14.472;2022-08-19T13:30:25;7.40;;;5.25;;
63370;SDS011;49504;48.336;14.472;2022-08-19T13:35:27;7.72;;;5.40;;
63370;SDS011;49504;48.336;14.472;2022-08-19T13:40:28;8.65;;;5.45;;
63370;SDS011;49504;48.336;14.472;2022-08-19T13:45:31;6.97;;;5.05;;
63370;SDS011;49504;48.336;14.472;2022-08-19T13:50:37;8.32;;;5.50;;
63370;SDS011;49504;48.336;14.472;2022-08-19T13:55:41;12.43;;;5.43;;
63370;SDS011;49504;48.336;14.472;2022-08-19T14:00:45;6.65;;;4.80;;
63370;SDS011;49504;48.336;14.472;2022-08-19T14:05:48;6.97;;;5.10;;
63370;SDS011;49504;48.336;14.472;2022-08-19T14:10:49;7.82;;;5.07;;
63370;SDS011;49504;48.336;14.472;2022-08-19T14:15:51;7.15;;;5.20;;
63370;SDS011;49504;48.336;14.472;2022-08-19T14:20:53;6.40;;;4.90;;
63370;SDS011;49504;48.336;14.472;2022-08-19T14:29:45;7.47;;;5.25;;
63370;SDS011;49504;48.336;14.472;2022-08-19T14:34:48;6.82;;;4.95;;
63370;SDS011;49504;48.336;14.472;2022-08-19T14:39:49;6.90;;;4.97;;
63370;SDS011;49504;48.336;14.472;2022-08-19T14:51:29;7.32;;;4.88;;
63370;SDS011;49504;48.336;14.472;2022-08-19T14:56:31;7.95;;;4.78;;
63370;SDS011;49504;48.336;14.472;2022-08-19T15:01:32;7.63;;;4.85;;
63370;SDS011;49504;48.336;14.472;2022-08-19T15:06:34;6.13;;;4.38;;
63370;SDS011;49504;48.336;14.472;2022-08-19T15:11:36;7.57;;;5.13;;
63370;SDS011;49504;48.336;14.472;2022-08-19T15:19:02;6.75;;;4.53;;
63370;SDS011;49504;48.336;14.472;2022-08-19T15:24:04;6.53;;;5.00;;
63370;SDS011;49504;48.336;14.472;2022-08-19T15:29:05;7.45;;;5.07;;
63370;SDS011;49504;48.336;14.472;2022-08-19T15:34:07;6.57;;;4.80;;
63370;SDS011;49504;48.336;14.472;2022-08-19T15:39:09;6.30;;;4.53;;
63370;SDS011;49504;48.336;14.472;2022-08-19T15:44:11;6.25;;;4.75;;
63370;SDS011;49504;48.336;14.472;2022-08-19T15:49:16;6.25;;;4.13;;
63370;SDS011;49504;48.336;14.472;2022-08-19T15:54:19;6.35;;;4.38;;
63370;SDS011;49504;48.336;14.472;2022-08-19T16:05:31;6.88;;;4.18;;
63370;SDS011;49504;48.336;14.472;2022-08-19T16:10:32;5.05;;;3.20;;
63370;SDS011;49504;48.336;14.472;2022-08-19T16:15:33;5.38;;;2.55;;
63370;SDS011;49504;48.336;14.472;2022-08-19T16:25:08;5.28;;;2.97;;
63370;SDS011;49504;48.336;14.472;2022-08-19T16:30:10;5.22;;;2.55;;
63370;SDS011;49504;48.336;14.472;2022-08-19T16:35:11;4.18;;;2.40;;
63370;SDS011;49504;48.336;14.472;2022-08-19T16:40:13;4.05;;;2.17;;
63370;SDS011;49504;48.336;14.472;2022-08-19T16:45:14;5.20;;;2.30;;
63370;SDS011;49504;48.336;14.472;2022-08-19T16:50:16;4.82;;;2.30;;
63370;SDS011;49504;48.336;14.472;2022-08-19T16:57:43;4.57;;;1.65;;
63370;SDS011;49504;48.336;14.472;2022-08-19T17:02:44;4.05;;;1.55;;
63370;SDS011;49504;48.336;14.472;2022-08-19T17:07:46;4.38;;;1.52;;
63370;SDS011;49504;48.336;14.472;2022-08-19T17:12:48;3.40;;;0.98;;
63370;SDS011;49504;48.336;14.472;2022-08-19T17:17:52;3.78;;;0.93;;
63370;SDS011;49504;48.336;14.472;2022-08-19T17:26:53;2.40;;;0.63;;
63370;SDS011;49504;48.336;14.472;2022-08-19T17:31:54;4.22;;;1.20;;
63370;SDS011;49504;48.336;14.472;2022-08-19T17:36:55;3.70;;;1.27;;
63370;SDS011;49504;48.336;14.472;2022-08-19T17:47:02;3.53;;;1.02;;
63370;SDS011;49504;48.336;14.472;2022-08-19T17:54:37;3.20;;;0.88;;
63370;SDS011;49504;48.336;14.472;2022-08-19T17:59:38;2.72;;;0.82;;
63370;SDS011;49504;48.336;14.472;2022-08-19T18:04:39;3.28;;;0.80;;
63370;SDS011;49504;48.336;14.472;2022-08-19T18:09:42;3.25;;;0.98;;
63370;SDS011;49504;48.336;14.472;2022-08-19T18:14:44;2.97;;;0.80;;
63370;SDS011;49504;48.336;14.472;2022-08-19T18:19:45;2.65;;;0.52;;
63370;SDS011;49504;48.336;14.472;2022-08-19T18:24:48;1.92;;;0.50;;
63370;SDS011;49504;48.336;14.472;2022-08-19T18:29:50;4.93;;;0.85;;
63370;SDS011;49504;48.336;14.472;2022-08-19T18:34:51;6.03;;;0.98;;
63370;SDS011;49504;48.336;14.472;2022-08-19T18:39:54;3.17;;;0.73;;
63370;SDS011;49504;48.336;14.472;2022-08-19T18:44:56;3.45;;;0.93;;
63370;SDS011;49504;48.336;14.472;2022-08-19T18:54:12;5.13;;;0.82;;
63370;SDS011;49504;48.336;14.472;2022-08-19T18:59:13;3.35;;;0.90;;
63370;SDS011;49504;48.336;14.472;2022-08-19T19:04:15;2.60;;;0.80;;
63370;SDS011;49504;48.336;14.472;2022-08-19T19:09:19;2.50;;;0.73;;
63370;SDS011;49504;48.336;14.472;2022-08-19T19:14:25;3.90;;;1.10;;
63370;SDS011;49504;48.336;14.472;2022-08-19T19:21:45;4.95;;;2.20;;
63370;SDS011;49504;48.336;14.472;2022-08-19T19:26:47;4.43;;;2.13;;
63370;SDS011;49504;48.336;14.472;2022-08-19T19:31:50;5.75;;;2.72;;
63370;SDS011;49504;48.336;14.472;2022-08-19T19:36:52;4.10;;;1.90;;
63370;SDS011;49504;48.336;14.472;2022-08-19T19:41:53;6.03;;;2.65;;
63370;SDS011;49504;48.336;14.472;2022-08-19T19:46:54;5.32;;;2.65;;
63370;SDS011;49504;48.336;14.472;2022-08-19T19:51:57;5.40;;;3.15;;
63370;SDS011;49504;48.336;14.472;2022-08-19T19:56:58;6.05;;;3.60;;
63370;SDS011;49504;48.336;14.472;2022-08-19T20:02:11;7.45;;;3.85;;
63370;SDS011;49504;48.336;14.472;2022-08-19T20:07:12;6.55;;;3.13;;
63370;SDS011;49504;48.336;14.472;2022-08-19T20:13:13;5.85;;;3.42;;
63370;SDS011;49504;48.336;14.472;2022-08-19T20:20:47;5.63;;;2.92;;
63370;SDS011;49504;48.336;14.472;2022-08-19T20:25:48;7.03;;;3.53;;
63370;SDS011;49504;48.336;14.472;2022-08-19T20:30:49;9.98;;;3.88;;
63370;SDS011;49504;48.336;14.472;2022-08-19T20:35:52;5.88;;;3.25;;
63370;SDS011;49504;48.336;14.472;2022-08-19T20:40:53;6.55;;;3.40;;
63370;SDS011;49504;48.336;14.472;2022-08-19T20:45:54;6.35;;;3.63;;
63370;SDS011;49504;48.336;14.472;2022-08-19T20:50:56;7.55;;;4.18;;
63370;SDS011;49504;48.336;14.472;2022-08-19T20:58:32;6.65;;;4.43;;
